Time;durP1;ratioP1;P1;durP2;ratioP2;P2;SDS_P1;SDS_P2;PMS_P1;PMS_P2;Temp;Humidity;BMP_temperature;BMP_pressure;BME280_temperature;BME280_humidity;BME280_pressure;Samples;Min_cycle;Max_cycle;Signal;HPM_P1;HPM_P2
2023/12/27 00:01:56;;;;;;;8.10;4.50;;;;;;;6.16;100.00;100407.61;1460305;89;21416;-73
2023/12/27 00:04:24;;;;;;;19.80;8.77;;;;;;;6.12;100.00;100410.95;1459442;89;21451;-73
2023/12/27 00:06:53;;;;;;;19.57;9.17;;;;;;;6.08;100.00;100420.05;1456281;89;21407;-74
2023/12/27 00:09:20;;;;;;;20.37;9.23;;;;;;;6.04;100.00;100406.77;1451223;89;21429;-73
2023/12/27 00:11:47;;;;;;;9.93;5.17;;;;;;;6.02;100.00;100419.21;1455913;89;21444;-73
2023/12/27 00:14:14;;;;;;;11.67;6.60;;;;;;;5.99;100.00;100419.45;1455396;89;22362;-73
2023/12/27 00:16:42;;;;;;;12.70;6.13;;;;;;;5.95;100.00;100421.45;1424934;89;21341;-73
2023/12/27 00:19:09;;;;;;;19.60;8.33;;;;;;;5.88;100.00;100419.75;1455818;89;21275;-73
2023/12/27 00:21:36;;;;;;;11.67;5.93;;;;;;;5.84;100.00;100416.16;1451404;89;21533;-74
2023/12/27 00:24:04;;;;;;;11.20;5.90;;;;;;;5.80;100.00;100420.81;1453919;89;21341;-73
2023/12/27 00:26:31;;;;;;;11.17;6.27;;;;;;;5.76;100.00;100428.58;1452435;89;22376;-74
2023/12/27 00:28:58;;;;;;;18.33;5.77;;;;;;;5.74;100.00;100433.09;1441503;89;21392;-74
2023/12/27 00:31:26;;;;;;;13.17;5.17;;;;;;;5.70;100.00;100439.55;1456074;89;21342;-74
2023/12/27 00:33:53;;;;;;;12.37;5.57;;;;;;;5.65;100.00;100442.98;1464019;89;21340;-74
2023/12/27 00:36:20;;;;;;;11.43;5.30;;;;;;;5.59;100.00;100447.39;1456434;89;22324;-74
2023/12/27 00:38:47;;;;;;;11.60;5.33;;;;;;;5.54;100.00;100457.39;1453734;89;21363;-74
2023/12/27 00:41:15;;;;;;;10.90;4.17;;;;;;;5.50;100.00;100465.16;1455590;89;22605;-74
2023/12/27 00:43:42;;;;;;;7.47;3.60;;;;;;;5.46;100.00;100463.69;1460007;89;21384;-74
2023/12/27 00:46:09;;;;;;;7.10;4.30;;;;;;;5.40;100.00;100461.88;1441620;89;21363;-74
2023/12/27 00:48:36;;;;;;;9.20;4.40;;;;;;;5.34;100.00;100464.95;1460136;89;22177;-74
2023/12/27 00:51:05;;;;;;;5.30;3.60;;;;;;;5.29;100.00;100464.45;1459433;89;21355;-74
2023/12/27 00:53:32;;;;;;;6.77;3.97;;;;;;;5.24;100.00;100465.28;1451256;89;21585;-73
2023/12/27 00:55:59;;;;;;;11.20;5.37;;;;;;;5.21;100.00;100473.38;1458954;89;22420;-73
2023/12/27 00:58:26;;;;;;;13.23;6.63;;;;;;;5.19;100.00;100473.96;1458263;89;21305;-73
2023/12/27 01:00:54;;;;;;;13.07;6.90;;;;;;;5.17;100.00;100481.09;1452329;89;21348;-73
2023/12/27 01:03:21;;;;;;;10.27;5.93;;;;;;;5.14;100.00;100479.53;1451013;89;21444;-74
2023/12/27 01:05:48;;;;;;;14.57;6.73;;;;;;;5.13;100.00;100486.22;1464562;89;21886;-73
2023/12/27 01:08:15;;;;;;;13.37;7.37;;;;;;;5.10;100.00;100483.34;1455152;89;22250;-74
2023/12/27 01:10:42;;;;;;;20.93;7.93;;;;;;;5.09;100.00;100486.92;1458537;89;21370;-74
2023/12/27 01:13:10;;;;;;;20.63;8.50;;;;;;;5.05;100.00;100489.86;1450342;89;21415;-73
2023/12/27 01:15:37;;;;;;;14.57;6.60;;;;;;;4.99;100.00;100492.45;1453796;89;21282;-74
2023/12/27 01:18:04;;;;;;;15.70;6.90;;;;;;;4.94;100.00;100492.77;1440370;89;22368;-73
2023/12/27 01:20:31;;;;;;;14.33;7.30;;;;;;;4.91;100.00;100496.92;1451556;89;21577;-73
2023/12/27 01:22:58;;;;;;;11.57;6.17;;;;;;;4.86;100.00;100503.00;1457798;89;21348;-73
2023/12/27 01:25:25;;;;;;;11.03;5.53;;;;;;;4.85;100.00;100505.23;1446010;89;21429;-73
2023/12/27 01:27:53;;;;;;;8.87;4.83;;;;;;;4.83;100.00;100504.50;1438116;89;22213;-74
2023/12/27 01:30:20;;;;;;;8.73;5.80;;;;;;;4.84;100.00;100511.91;1459950;89;21496;-74
2023/12/27 01:32:47;;;;;;;11.43;5.30;;;;;;;4.81;100.00;100512.97;1456414;89;21363;-74
2023/12/27 01:35:15;;;;;;;12.07;5.03;;;;;;;4.78;100.00;100520.22;1455096;89;21355;-73
2023/12/27 01:37:43;;;;;;;10.50;4.63;;;;;;;4.74;100.00;100513.84;1455328;89;22450;-74
2023/12/27 01:40:11;;;;;;;10.10;4.60;;;;;;;4.71;100.00;100518.00;1453094;89;21459;-73
2023/12/27 01:42:39;;;;;;;8.00;4.67;;;;;;;4.69;100.00;100520.36;1463141;89;21260;-73
2023/12/27 01:45:07;;;;;;;9.73;3.60;;;;;;;4.68;100.00;100533.11;1455989;89;21371;-73
2023/12/27 01:47:37;;;;;;;8.40;4.67;;;;;;;4.65;100.00;100533.33;1465100;89;21363;-73
2023/12/27 01:50:09;;;;;;;10.70;5.27;;;;;;;4.62;100.00;100544.03;1460026;89;21495;-74
2023/12/27 01:52:41;;;;;;;6.53;3.53;;;;;;;4.58;100.00;100555.69;1451786;89;21525;-74
2023/12/27 01:55:11;;;;;;;7.13;3.77;;;;;;;4.53;100.00;100559.45;1441823;89;21429;-73
2023/12/27 01:57:38;;;;;;;9.10;3.93;;;;;;;4.54;100.00;100566.84;1453037;89;21363;-73
2023/12/27 02:00:08;;;;;;;4.93;3.50;;;;;;;4.51;100.00;100566.56;1454189;89;21473;-73
2023/12/27 02:02:38;;;;;;;6.53;3.47;;;;;;;4.49;100.00;100567.17;1450776;89;21377;-73
2023/12/27 02:05:06;;;;;;;7.20;2.90;;;;;;;4.47;100.00;100567.73;1451023;89;21856;-73
2023/12/27 02:07:35;;;;;;;5.97;3.07;;;;;;;4.45;100.00;100577.48;1460655;89;22472;-73
2023/12/27 02:10:04;;;;;;;5.60;3.03;;;;;;;4.45;100.00;100577.95;1458568;89;22323;-74
2023/12/27 02:12:32;;;;;;;7.73;2.87;;;;;;;4.45;100.00;100576.64;1458419;89;21492;-73
2023/12/27 02:14:59;;;;;;;6.07;4.00;;;;;;;4.44;100.00;100574.98;1455891;89;21429;-73
2023/12/27 02:17:28;;;;;;;4.67;3.10;;;;;;;4.42;100.00;100571.61;1459846;89;22383;-74
2023/12/27 02:19:57;;;;;;;8.80;4.23;;;;;;;4.38;100.00;100570.16;1454943;89;22309;-74
2023/12/27 02:22:27;;;;;;;6.50;4.30;;;;;;;4.33;100.00;100561.28;1463429;89;21451;-73
2023/12/27 02:24:55;;;;;;;15.60;5.63;;;;;;;4.31;100.00;100568.41;1448485;89;21421;-74
2023/12/27 02:27:23;;;;;;;9.70;4.73;;;;;;;4.30;100.00;100570.19;1448840;89;21392;-74
2023/12/27 02:29:50;;;;;;;13.67;6.30;;;;;;;4.30;100.00;100578.53;1455760;89;21543;-73
2023/12/27 02:32:17;;;;;;;12.53;5.17;;;;;;;4.27;100.00;100580.05;1452469;89;21415;-73
2023/12/27 02:34:45;;;;;;;6.07;3.73;;;;;;;4.24;100.00;100573.70;1453672;89;21296;-73
2023/12/27 02:37:12;;;;;;;8.23;4.03;;;;;;;4.22;100.00;100579.51;1456311;89;21385;-74
2023/12/27 02:39:39;;;;;;;5.47;3.73;;;;;;;4.17;100.00;100575.05;1449345;89;22355;-73
2023/12/27 02:42:06;;;;;;;5.73;3.13;;;;;;;4.10;100.00;100575.94;1448374;89;21460;-74
2023/12/27 02:44:33;;;;;;;7.50;3.20;;;;;;;4.03;100.00;100580.75;1461680;89;21325;-74
2023/12/27 02:47:01;;;;;;;8.07;3.47;;;;;;;3.97;100.00;100585.53;1453266;89;22147;-73
2023/12/27 02:49:28;;;;;;;5.40;2.80;;;;;;;3.88;100.00;100586.98;1459377;89;21377;-73
2023/12/27 02:51:56;;;;;;;6.60;3.00;;;;;;;3.85;100.00;100584.56;1460023;89;21437;-74
2023/12/27 02:54:22;;;;;;;6.70;2.73;;;;;;;3.80;100.00;100577.03;1458398;89;21341;-73
2023/12/27 02:56:49;;;;;;;4.37;2.83;;;;;;;3.77;100.00;100582.91;1457995;89;21414;-73
2023/12/27 02:59:17;;;;;;;9.97;3.30;;;;;;;3.74;100.00;100579.19;1460923;89;21341;-73
2023/12/27 03:01:44;;;;;;;5.47;2.50;;;;;;;3.71;100.00;100585.49;1449655;89;22258;-73
2023/12/27 03:04:11;;;;;;;7.80;2.63;;;;;;;3.68;100.00;100585.66;1456947;89;21349;-73
2023/12/27 03:06:38;;;;;;;4.90;2.87;;;;;;;3.66;100.00;100585.42;1460004;89;21562;-73
2023/12/27 03:09:05;;;;;;;5.23;3.07;;;;;;;3.64;100.00;100579.44;1454137;89;21460;-73
2023/12/27 03:11:32;;;;;;;6.07;3.93;;;;;;;3.61;100.00;100585.70;1457620;89;22287;-73
2023/12/27 03:14:01;;;;;;;8.57;4.27;;;;;;;3.60;100.00;100581.42;1452086;89;21436;-73
2023/12/27 03:16:28;;;;;;;9.80;4.67;;;;;;;3.58;100.00;100577.58;1453960;89;21475;-73
2023/12/27 03:18:56;;;;;;;8.17;4.03;;;;;;;3.58;100.00;100585.42;1455084;89;21522;-73
2023/12/27 03:21:23;;;;;;;18.93;5.43;;;;;;;3.58;100.00;100581.50;1450210;89;21311;-74
2023/12/27 03:23:50;;;;;;;7.73;4.47;;;;;;;3.57;100.00;100585.07;1459198;89;21362;-73
2023/12/27 03:26:17;;;;;;;8.93;5.37;;;;;;;3.58;100.00;100582.81;1458936;89;22280;-74
2023/12/27 03:28:44;;;;;;;11.03;4.40;;;;;;;3.59;100.00;100587.09;1462292;89;21514;-73
2023/12/27 03:31:13;;;;;;;6.77;3.00;;;;;;;3.63;100.00;100584.31;1452940;89;22176;-73
2023/12/27 03:33:40;;;;;;;5.50;2.80;;;;;;;3.63;100.00;100584.31;1451717;89;21355;-73
2023/12/27 03:36:08;;;;;;;7.43;3.83;;;;;;;3.66;100.00;100589.34;1448599;89;22501;-74
2023/12/27 03:38:35;;;;;;;8.97;3.03;;;;;;;3.70;100.00;100594.73;1455446;89;21355;-73
2023/12/27 03:41:03;;;;;;;5.93;3.17;;;;;;;3.74;100.00;100598.38;1467537;89;21878;-73
2023/12/27 03:43:30;;;;;;;8.17;3.23;;;;;;;3.76;100.00;100600.88;1442409;89;21557;-74
2023/12/27 03:45:59;;;;;;;5.40;3.47;;;;;;;3.74;100.00;100606.67;1453049;89;21415;-72
2023/12/27 03:48:26;;;;;;;6.23;3.30;;;;;;;3.74;100.00;100606.67;1456490;89;21356;-73
2023/12/27 03:50:53;;;;;;;8.17;3.90;;;;;;;3.72;100.00;100613.34;1458468;89;21437;-73
2023/12/27 03:53:20;;;;;;;4.23;2.87;;;;;;;3.70;100.00;100616.98;1434917;89;21385;-74
2023/12/27 03:55:47;;;;;;;6.50;2.80;;;;;;;3.70;100.00;100616.98;1457406;89;21415;-73
2023/12/27 03:58:15;;;;;;;4.57;2.80;;;;;;;3.70;100.00;100619.61;1451176;89;22324;-74
2023/12/27 04:00:42;;;;;;;6.93;2.80;;;;;;;3.71;100.00;100627.82;1451313;89;21584;-73
2023/12/27 04:03:09;;;;;;;6.00;3.50;;;;;;;3.70;100.00;100630.91;1453469;89;21377;-73
2023/12/27 04:05:36;;;;;;;7.47;3.20;;;;;;;3.73;100.00;100633.33;1458407;89;21414;-73
2023/12/27 04:08:05;;;;;;;3.40;2.00;;;;;;;3.77;100.00;100638.76;1456673;89;21576;-73
2023/12/27 04:10:32;;;;;;;6.43;2.90;;;;;;;3.79;100.00;100636.02;1460066;89;21555;-74
2023/12/27 04:13:00;;;;;;;3.70;2.50;;;;;;;3.76;100.00;100637.53;1458603;89;21422;-73
2023/12/27 04:15:27;;;;;;;7.57;4.03;;;;;;;3.73;100.00;100641.19;1456591;89;22301;-74
2023/12/27 04:17:54;;;;;;;5.80;2.50;;;;;;;3.71;100.00;100643.08;1464370;89;21341;-73
2023/12/27 04:20:21;;;;;;;5.70;3.17;;;;;;;3.67;100.00;100642.05;1451660;89;21488;-74
2023/12/27 04:22:48;;;;;;;8.07;3.97;;;;;;;3.66;100.00;100641.22;1452344;89;21348;-73
2023/12/27 04:25:16;;;;;;;5.50;2.80;;;;;;;3.67;100.00;100649.91;1461502;89;21252;-74
2023/12/27 04:27:43;;;;;;;9.90;4.10;;;;;;;3.65;100.00;100655.23;1457285;89;21414;-74
2023/12/27 04:30:11;;;;;;;6.27;3.83;;;;;;;3.63;100.00;100662.83;1458155;89;21436;-73
2023/12/27 04:32:39;;;;;;;8.10;4.80;;;;;;;3.64;100.00;100663.19;1454810;89;22331;-73
2023/12/27 04:35:07;;;;;;;11.80;4.87;;;;;;;3.64;100.00;100665.81;1458076;89;21407;-73
2023/12/27 04:37:34;;;;;;;9.50;3.67;;;;;;;3.65;100.00;100671.41;1459302;89;21275;-73
2023/12/27 04:40:01;;;;;;;5.27;3.53;;;;;;;3.63;100.00;100674.61;1454182;89;22516;-74
2023/12/27 04:42:29;;;;;;;5.53;2.67;;;;;;;3.62;100.00;100684.21;1455835;89;21370;-74
2023/12/27 04:44:56;;;;;;;4.90;3.03;;;;;;;3.60;100.00;100685.64;1454909;89;22258;-73
2023/12/27 04:47:23;;;;;;;10.83;3.50;;;;;;;3.61;100.00;100687.30;1461137;89;21312;-73
2023/12/27 04:49:50;;;;;;;4.83;2.70;;;;;;;3.61;100.00;100682.07;1463131;89;21303;-73
2023/12/27 04:52:17;;;;;;;4.63;2.50;;;;;;;3.61;100.00;100683.38;1457977;89;21415;-74
2023/12/27 04:54:44;;;;;;;5.13;2.60;;;;;;;3.61;100.00;100683.38;1455193;89;21422;-73
2023/12/27 04:57:12;;;;;;;3.60;2.40;;;;;;;3.56;100.00;100680.20;1458396;89;21496;-74
2023/12/27 04:59:39;;;;;;;5.07;2.63;;;;;;;3.45;100.00;100676.58;1450176;89;21379;-73
2023/12/27 05:02:06;;;;;;;6.27;3.33;;;;;;;3.44;100.00;100692.75;1458265;89;21349;-73
2023/12/27 05:04:33;;;;;;;12.60;5.27;;;;;;;3.41;100.00;100696.88;1459304;89;21570;-73
2023/12/27 05:07:00;;;;;;;16.17;8.83;;;;;;;3.37;100.00;100696.70;1454036;89;21371;-73
2023/12/27 05:09:28;;;;;;;19.90;10.77;;;;;;;3.32;100.00;100698.75;1454872;89;21468;-74
2023/12/27 05:11:55;;;;;;;24.43;13.13;;;;;;;3.25;100.00;100706.59;1451125;89;21340;-73
2023/12/27 05:14:22;;;;;;;14.13;8.47;;;;;;;3.25;100.00;100706.59;1449463;89;21481;-73
2023/12/27 05:16:50;;;;;;;13.43;8.27;;;;;;;3.24;100.00;100714.08;1460959;89;22933;-73
2023/12/27 05:19:17;;;;;;;15.27;8.47;;;;;;;3.22;100.00;100706.30;1453090;89;23133;-73
2023/12/27 05:21:45;;;;;;;15.67;7.60;;;;;;;3.19;100.00;100705.66;1441705;89;22165;-73
2023/12/27 05:24:12;;;;;;;12.30;6.17;;;;;;;3.18;100.00;100711.36;1449050;89;21370;-73
2023/12/27 05:26:39;;;;;;;8.63;4.80;;;;;;;3.16;100.00;100716.70;1454690;89;23108;-73
2023/12/27 05:29:06;;;;;;;11.67;6.23;;;;;;;3.15;100.00;100730.70;1445141;89;22003;-73
2023/12/27 05:31:34;;;;;;;10.00;5.53;;;;;;;3.09;100.00;100737.61;1434786;89;23061;-73
2023/12/27 05:34:03;;;;;;;30.07;13.10;;;;;;;3.06;100.00;100741.72;1455250;89;21482;-73
2023/12/27 05:36:30;;;;;;;28.47;13.90;;;;;;;3.06;100.00;100741.72;1459068;89;21444;-73
2023/12/27 05:38:57;;;;;;;20.87;10.10;;;;;;;3.08;100.00;100753.38;1457144;89;22145;-73
2023/12/27 05:41:25;;;;;;;18.83;10.00;;;;;;;3.04;100.00;100750.11;1434984;89;22270;-74
2023/12/27 05:43:54;;;;;;;19.40;6.93;;;;;;;3.05;100.00;100760.97;1450518;89;22137;-73
2023/12/27 05:46:21;;;;;;;17.53;6.73;;;;;;;3.04;100.00;100764.49;1452003;89;22330;-73
2023/12/27 05:48:49;;;;;;;11.93;6.87;;;;;;;3.04;100.00;100763.19;1429566;89;22143;-73
2023/12/27 05:51:16;;;;;;;10.70;5.90;;;;;;;3.00;100.00;100774.77;1454649;89;22211;-73
2023/12/27 05:53:43;;;;;;;9.77;4.90;;;;;;;2.96;100.00;100779.79;1446425;89;22026;-73
2023/12/27 05:56:10;;;;;;;10.37;5.37;;;;;;;2.88;100.00;100784.66;1454729;89;22070;-73
2023/12/27 05:58:37;;;;;;;6.87;3.90;;;;;;;2.88;100.00;100784.66;1458496;89;21606;-73
2023/12/27 06:01:05;;;;;;;9.60;4.10;;;;;;;2.88;100.00;100792.50;1455490;89;22085;-73
2023/12/27 06:03:32;;;;;;;7.80;4.63;;;;;;;2.86;100.00;100800.41;1455834;89;22053;-73
2023/12/27 06:06:00;;;;;;;16.33;3.90;;;;;;;2.84;100.00;100810.58;1456673;89;22099;-73
2023/12/27 06:08:27;;;;;;;6.83;4.57;;;;;;;2.82;100.00;100808.07;1449736;89;23189;-73
2023/12/27 06:10:54;;;;;;;8.53;5.10;;;;;;;2.79;100.00;100818.70;1459096;89;22114;-73
2023/12/27 06:13:21;;;;;;;9.63;5.20;;;;;;;2.77;100.00;100823.17;1452666;89;22010;-73
2023/12/27 06:15:48;;;;;;;10.37;5.33;;;;;;;2.77;100.00;100816.64;1460228;89;22152;-74
2023/12/27 06:18:15;;;;;;;13.17;5.50;;;;;;;2.76;100.00;100814.93;1453516;89;22061;-73
2023/12/27 06:20:43;;;;;;;11.80;5.23;;;;;;;2.75;100.00;100818.95;1454983;89;22563;-74
2023/12/27 06:23:10;;;;;;;9.37;5.00;;;;;;;2.73;100.00;100819.50;1456293;89;21968;-74
2023/12/27 06:25:37;;;;;;;14.17;6.97;;;;;;;2.71;100.00;100819.14;1457828;89;22070;-74
2023/12/27 06:28:05;;;;;;;13.03;6.80;;;;;;;2.71;100.00;100822.22;1451461;89;22214;-73
2023/12/27 06:30:32;;;;;;;14.67;7.40;;;;;;;2.75;100.00;100822.88;1451109;89;22016;-74
2023/12/27 06:33:00;;;;;;;12.53;7.40;;;;;;;2.78;100.00;100830.54;1455739;89;22963;-73
2023/12/27 06:35:27;;;;;;;14.03;7.50;;;;;;;2.79;100.00;100838.75;1458521;89;22008;-73
2023/12/27 06:37:55;;;;;;;9.87;5.63;;;;;;;2.80;100.00;100846.52;1453766;89;22061;-73
2023/12/27 06:40:22;;;;;;;15.83;5.80;;;;;;;2.80;100.00;100841.30;1451059;89;23289;-73
2023/12/27 06:42:50;;;;;;;9.70;5.77;;;;;;;2.83;100.00;100845.50;1456006;89;22030;-73
2023/12/27 06:45:17;;;;;;;9.03;5.17;;;;;;;2.84;100.00;100845.88;1450072;89;21443;-74
2023/12/27 06:47:44;;;;;;;10.63;5.97;;;;;;;2.88;100.00;100848.70;1457415;89;22077;-73
2023/12/27 06:50:12;;;;;;;12.33;6.73;;;;;;;2.88;100.00;100856.55;1453144;89;22107;-73
2023/12/27 06:52:39;;;;;;;11.83;5.70;;;;;;;2.88;100.00;100856.55;1451812;89;21296;-73
2023/12/27 06:55:08;;;;;;;14.40;5.93;;;;;;;2.96;100.00;100864.77;1449760;89;22056;-73
2023/12/27 06:57:35;;;;;;;9.87;5.33;;;;;;;2.99;100.00;100881.59;1454267;89;22357;-73
2023/12/27 07:00:03;;;;;;;9.83;5.60;;;;;;;3.02;100.00;100893.21;1456664;89;22744;-73
2023/12/27 07:02:30;;;;;;;9.73;5.90;;;;;;;3.08;100.00;100908.55;1453018;89;23024;-73
2023/12/27 07:04:57;;;;;;;9.30;5.13;;;;;;;3.12;100.00;100908.73;1459543;89;21311;-74
2023/12/27 07:07:24;;;;;;;15.30;5.67;;;;;;;3.18;100.00;100911.94;1451423;89;22241;-73
2023/12/27 07:09:52;;;;;;;11.17;5.63;;;;;;;3.33;100.00;100925.42;1459680;89;22132;-73
2023/12/27 07:12:19;;;;;;;13.43;6.67;;;;;;;3.33;100.00;100925.42;1450925;89;21478;-73
2023/12/27 07:14:46;;;;;;;11.77;6.43;;;;;;;3.41;100.00;100921.91;1457504;89;21400;-74
2023/12/27 07:17:13;;;;;;;12.33;6.20;;;;;;;3.51;100.00;100941.38;1454595;89;21393;-74
2023/12/27 07:19:40;;;;;;;10.47;5.67;;;;;;;3.59;100.00;100943.53;1459188;89;21325;-74
2023/12/27 07:22:08;;;;;;;11.77;7.00;;;;;;;3.61;100.00;100941.20;1444826;89;21385;-74
2023/12/27 07:24:35;;;;;;;17.77;9.30;;;;;;;3.71;100.00;100947.20;1451035;89;21341;-73
2023/12/27 07:27:03;;;;;;;17.33;9.63;;;;;;;3.81;100.00;100954.90;1460376;89;21341;-73
2023/12/27 07:29:30;;;;;;;16.90;9.67;;;;;;;3.89;100.00;100953.98;1456693;89;21355;-73
2023/12/27 07:31:58;;;;;;;15.77;8.90;;;;;;;3.98;100.00;100967.82;1457523;89;21334;-73
2023/12/27 07:34:25;;;;;;;12.33;7.43;;;;;;;4.06;100.00;100964.28;1458511;89;21415;-73
2023/12/27 07:36:53;;;;;;;13.13;7.43;;;;;;;4.17;100.00;100975.43;1462389;89;22317;-74
2023/12/27 07:39:21;;;;;;;12.10;6.60;;;;;;;4.25;100.00;100984.95;1452944;89;21430;-74
2023/12/27 07:41:48;;;;;;;18.47;7.77;;;;;;;4.36;100.00;100992.16;1455683;89;22294;-73
2023/12/27 07:44:16;;;;;;;16.50;8.77;;;;;;;4.46;100.00;100994.61;1456924;89;21510;-73
2023/12/27 07:46:44;;;;;;;19.77;10.67;;;;;;;4.58;100.00;100989.08;1458713;89;22278;-73
2023/12/27 07:49:12;;;;;;;17.30;8.77;;;;;;;4.70;100.00;100995.33;1447993;89;21511;-73
2023/12/27 07:51:39;;;;;;;13.30;7.30;;;;;;;4.81;100.00;100998.12;1453514;89;21407;-73
2023/12/27 07:54:07;;;;;;;11.57;7.00;;;;;;;4.73;100.00;101005.15;1447429;89;21340;-74
2023/12/27 07:56:35;;;;;;;12.97;6.80;;;;;;;4.79;100.00;101006.55;1449271;89;21521;-74
2023/12/27 07:59:03;;;;;;;12.30;7.07;;;;;;;4.74;100.00;101019.09;1457460;89;22301;-73
2023/12/27 08:01:31;;;;;;;16.37;10.70;;;;;;;4.76;100.00;101025.09;1449266;89;21407;-74
2023/12/27 08:03:59;;;;;;;9.10;5.73;;;;;;;4.82;100.00;101027.81;1457725;89;21392;-74
2023/12/27 08:06:26;;;;;;;10.60;6.23;;;;;;;4.82;100.00;101032.58;1462226;89;21474;-73
2023/12/27 08:08:55;;;;;;;10.87;6.53;;;;;;;4.73;100.00;101041.86;1449269;89;22500;-73
2023/12/27 08:11:23;;;;;;;13.43;7.80;;;;;;;4.73;100.00;101048.89;1452971;89;21484;-73
2023/12/27 08:13:50;;;;;;;14.27;8.60;;;;;;;4.68;100.00;101046.55;1455892;89;21362;-74
2023/12/27 08:16:17;;;;;;;14.37;9.23;;;;;;;4.64;100.00;101046.84;1458865;89;22347;-74
2023/12/27 08:18:45;;;;;;;18.40;11.33;;;;;;;4.63;100.00;101059.12;1459293;89;21289;-74
2023/12/27 08:21:12;;;;;;;18.27;11.77;;;;;;;4.69;100.00;101068.36;1445034;89;21503;-73
2023/12/27 08:23:39;;;;;;;26.23;15.33;;;;;;;4.82;100.00;101072.39;1457399;89;22220;-74
2023/12/27 08:26:08;;;;;;;20.67;12.07;;;;;;;4.97;100.00;101078.83;1453163;89;21430;-73
2023/12/27 08:28:36;;;;;;;19.30;12.10;;;;;;;5.15;100.00;101082.11;1465478;89;21363;-74
2023/12/27 08:31:07;;;;;;;16.57;10.77;;;;;;;5.27;100.00;101092.30;1451521;89;21492;-73
2023/12/27 08:33:37;;;;;;;18.87;9.87;;;;;;;5.35;100.00;101109.72;1455036;89;21348;-74
2023/12/27 08:36:05;;;;;;;19.67;9.90;;;;;;;5.37;100.00;101108.29;1457372;89;21349;-74
2023/12/27 08:38:32;;;;;;;23.67;14.70;;;;;;;5.42;100.00;101101.80;1457626;89;21577;-74
2023/12/27 08:40:59;;;;;;;18.27;10.17;;;;;;;5.48;100.00;101098.42;1460120;89;21598;-73
2023/12/27 08:43:29;;;;;;;15.57;10.40;;;;;;;5.43;100.00;101098.70;1455307;89;22390;-73
2023/12/27 08:45:57;;;;;;;15.37;9.40;;;;;;;5.42;100.00;101103.12;1452067;89;21801;-74
2023/12/27 08:48:24;;;;;;;19.23;10.57;;;;;;;5.52;100.00;101110.41;1453233;89;21392;-73
2023/12/27 08:50:52;;;;;;;16.93;9.47;;;;;;;5.61;100.00;101108.05;1458912;89;21333;-74
2023/12/27 08:53:19;;;;;;;14.63;6.90;;;;;;;5.70;100.00;101109.23;1443008;89;21392;-73
2023/12/27 08:55:47;;;;;;;15.53;8.07;;;;;;;5.80;100.00;101123.44;1448779;89;22332;-73
2023/12/27 08:58:14;;;;;;;17.27;8.60;;;;;;;5.96;100.00;101127.74;1460286;89;21370;-73
2023/12/27 09:00:41;;;;;;;14.23;9.10;;;;;;;6.08;100.00;101130.39;1462585;89;21362;-74
2023/12/27 09:03:08;;;;;;;24.17;12.70;;;;;;;6.16;100.00;101131.20;1449057;89;21341;-74
2023/12/27 09:05:35;;;;;;;28.67;15.77;;;;;;;6.25;100.00;101129.75;1447394;89;21304;-73
2023/12/27 09:08:03;;;;;;;32.73;17.73;;;;;;;6.31;100.00;101137.22;1452396;89;22428;-74
2023/12/27 09:10:30;;;;;;;29.10;17.77;;;;;;;6.34;100.00;101146.22;1452985;89;22620;-74
2023/12/27 09:12:58;;;;;;;28.30;15.50;;;;;;;6.32;100.00;101141.52;1451710;89;21899;-74
2023/12/27 09:15:25;;;;;;;20.07;10.17;;;;;;;6.31;100.00;101142.48;1465094;89;22407;-74
2023/12/27 09:17:52;;;;;;;18.40;11.63;;;;;;;6.28;100.00;101144.84;1463666;89;21371;-73
2023/12/27 09:20:20;;;;;;;19.73;11.13;;;;;;;6.30;100.00;101148.22;1449469;89;22352;-74
2023/12/27 09:22:48;;;;;;;23.47;13.03;;;;;;;6.34;100.00;101151.47;1449594;89;21370;-73
2023/12/27 09:25:16;;;;;;;25.53;13.83;;;;;;;6.38;100.00;101145.53;1457478;89;22383;-74
2023/12/27 09:27:46;;;;;;;17.53;12.10;;;;;;;6.44;100.00;101145.11;1448991;89;21422;-74
2023/12/27 09:30:13;;;;;;;24.57;13.43;;;;;;;6.48;100.00;101140.03;1454309;89;22250;-74
2023/12/27 09:32:42;;;;;;;23.97;14.00;;;;;;;6.58;100.00;101145.50;1454821;89;22597;-74
2023/12/27 09:35:10;;;;;;;19.63;10.93;;;;;;;6.61;100.00;101134.30;1466730;89;22228;-74
2023/12/27 09:37:37;;;;;;;25.40;12.03;;;;;;;6.66;100.00;101133.51;1440621;89;21357;-74
2023/12/27 09:40:07;;;;;;;25.00;14.90;;;;;;;6.71;100.00;101135.84;1448733;89;21836;-74
2023/12/27 09:42:37;;;;;;;37.20;21.40;;;;;;;6.73;100.00;101141.37;1452802;89;21407;-74
2023/12/27 09:45:09;;;;;;;48.38;24.87;;;;;;;6.72;100.00;101146.23;1454887;89;21585;-74
2023/12/27 09:47:38;;;;;;;24.30;14.57;;;;;;;6.74;100.00;101148.78;1460127;89;21334;-74
2023/12/27 09:50:07;;;;;;;22.60;13.07;;;;;;;6.83;100.00;101141.56;1454347;89;21437;-74
2023/12/27 09:52:38;;;;;;;20.40;13.10;;;;;;;6.93;100.00;101137.36;1454505;89;21267;-74
2023/12/27 09:55:06;;;;;;;22.70;14.27;;;;;;;7.07;100.00;101136.38;1447857;89;21378;-74
2023/12/27 09:57:33;;;;;;;53.80;30.17;;;;;;;7.12;100.00;101136.89;1450867;89;21362;-74
2023/12/27 10:00:05;;;;;;;36.47;19.40;;;;;;;7.24;100.00;101141.28;1455826;89;21495;-74
2023/12/27 10:02:33;;;;;;;;;;;;;;;7.29;100.00;101144.09;1458637;89;21459;-74
2023/12/27 10:05:15;;;;;;;20.23;12.57;;;;;;;7.39;100.00;101139.83;1459744;89;20298;-74
2023/12/27 10:07:43;;;;;;;40.17;23.90;;;;;;;7.50;100.00;101142.54;1447075;89;22397;-74
2023/12/27 10:10:10;;;;;;;27.40;16.53;;;;;;;7.56;100.00;101147.36;1451855;89;21377;-74
2023/12/27 10:12:40;;;;;;;28.20;14.30;;;;;;;7.64;100.00;101148.97;1447747;89;21362;-74
2023/12/27 10:15:08;;;;;;;22.17;14.17;;;;;;;7.71;100.00;101145.44;1447541;89;21304;-74
2023/12/27 10:17:35;;;;;;;24.23;13.30;;;;;;;7.79;100.00;101147.50;1456629;89;21422;-74
2023/12/27 10:20:06;;;;;;;22.10;13.13;;;;;;;7.93;100.00;101147.33;1456295;89;21600;-74
2023/12/27 10:22:33;;;;;;;23.73;11.53;;;;;;;8.09;100.00;101150.52;1468061;89;21489;-74
2023/12/27 10:25:00;;;;;;;17.50;10.10;;;;;;;8.25;100.00;101161.23;1455871;89;21368;-74
2023/12/27 10:27:32;;;;;;;15.70;9.77;;;;;;;8.34;100.00;101159.22;1460591;89;22822;-74
2023/12/27 10:30:03;;;;;;;17.77;10.73;;;;;;;8.40;100.00;101158.81;1454638;89;21488;-73
2023/12/27 10:32:30;;;;;;;16.05;10.28;;;;;;;8.45;100.00;101157.12;1448579;89;21436;-74
2023/12/27 10:34:58;;;;;;;14.70;8.63;;;;;;;8.45;100.00;101164.56;1451368;89;21830;-74
2023/12/27 10:37:26;;;;;;;15.23;9.77;;;;;;;8.51;100.00;101164.09;1445367;89;21355;-75
2023/12/27 10:39:56;;;;;;;15.63;9.87;;;;;;;8.56;100.00;101161.95;1447810;89;21444;-74
2023/12/27 10:42:28;;;;;;;15.53;9.00;;;;;;;8.69;100.00;101155.73;1455241;89;21370;-74
2023/12/27 10:44:54;;;;;;;15.60;9.80;;;;;;;8.90;100.00;101150.14;1440286;89;21377;-74
2023/12/27 10:47:23;;;;;;;18.90;9.53;;;;;;;9.37;100.00;101148.67;1458050;89;21562;-74
2023/12/27 10:49:52;;;;;;;12.20;7.40;;;;;;;9.79;100.00;101153.64;1456602;89;21429;-74
2023/12/27 10:52:21;;;;;;;14.87;7.60;;;;;;;9.93;100.00;101146.74;1456733;89;21391;-74
2023/12/27 10:54:51;;;;;;;13.00;8.37;;;;;;;9.94;100.00;101148.41;1461446;89;21482;-74
2023/12/27 10:57:19;;;;;;;;;;;;;;;9.89;100.00;101152.39;1445451;89;21340;-75
2023/12/27 10:59:47;;;;;;;11.83;7.27;;;;;;;9.85;100.00;101154.94;1448840;89;20827;-74
2023/12/27 11:02:17;;;;;;;11.20;5.87;;;;;;;9.85;100.00;101154.45;1456638;89;21333;-74
2023/12/27 11:04:46;;;;;;;12.77;7.37;;;;;;;10.01;100.00;101153.19;1453280;89;21547;-74
2023/12/27 11:07:17;;;;;;;12.63;7.70;;;;;;;10.14;100.00;101150.73;1456575;89;22295;-74
2023/12/27 11:09:47;;;;;;;16.00;8.40;;;;;;;10.39;100.00;101147.41;1450132;89;21466;-74
2023/12/27 11:12:19;;;;;;;12.50;7.75;;;;;;;10.66;100.00;101145.55;1457396;89;21510;-74
2023/12/27 11:14:49;;;;;;;17.30;8.53;;;;;;;10.93;100.00;101144.14;1456340;89;21333;-74
2023/12/27 11:17:19;;;;;;;15.27;8.17;;;;;;;11.16;100.00;101146.13;1446037;89;22384;-74
2023/12/27 11:19:50;;;;;;;15.30;8.90;;;;;;;11.26;100.00;101142.55;1458146;89;22204;-74
2023/12/27 11:22:17;;;;;;;9.65;7.00;;;;;;;11.36;100.00;101142.56;1454973;89;21541;-75